Time;durP1;ratioP1;P1;durP2;ratioP2;P2;SDS_P1;SDS_P2;PMS_P1;PMS_P2;Temp;Humidity;BMP_temperature;BMP_pressure;BME280_temperature;BME280_humidity;BME280_pressure;Samples;Min_cycle;Max_cycle;Signal;HPM_P1;HPM_P2
2021/06/28 00:01:41;;;;;;;0.57;0.30;;;17.00;68.20;;;;;;5013874;28;20034;-85
2021/06/28 00:04:07;;;;;;;0.10;0.00;;;16.90;68.20;;;;;;5014283;28;20460;-84
2021/06/28 00:06:33;;;;;;;0.45;0.20;;;16.90;68.20;;;;;;5009333;28;20110;-85
2021/06/28 00:08:59;;;;;;;0.17;0.08;;;16.90;68.30;;;;;;5012827;28;20050;-84
2021/06/28 00:11:26;;;;;;;0.15;0.10;;;16.90;68.40;;;;;;5014053;28;20038;-85
2021/06/28 00:13:54;;;;;;;0.35;0.10;;;16.80;68.40;;;;;;5014141;28;20026;-84
2021/06/28 00:16:23;;;;;;;0.05;0.00;;;16.80;68.50;;;;;;5028860;28;20404;-84
2021/06/28 00:18:49;;;;;;;0.15;0.10;;;16.70;68.50;;;;;;5028938;28;20036;-84
2021/06/28 00:21:15;;;;;;;0.00;0.00;;;16.70;68.50;;;;;;5013616;28;20063;-85
2021/06/28 00:23:41;;;;;;;0.10;0.00;;;16.70;68.70;;;;;;5014172;28;20061;-84
2021/06/28 00:26:08;;;;;;;0.00;0.00;;;16.70;68.70;;;;;;5028878;28;20033;-84
2021/06/28 00:28:34;;;;;;;0.03;0.00;;;16.60;68.80;;;;;;5013613;28;20038;-84
2021/06/28 00:31:00;;;;;;;0.38;0.08;;;16.60;68.80;;;;;;5013565;28;20038;-85
2021/06/28 00:33:26;;;;;;;0.20;0.00;;;16.60;68.90;;;;;;5013024;28;20041;-83
2021/06/28 00:35:52;;;;;;;0.77;0.20;;;16.50;68.80;;;;;;5013919;28;20369;-83
2021/06/28 00:38:18;;;;;;;0.10;0.00;;;16.50;69.00;;;;;;5013646;28;20033;-84
2021/06/28 00:40:45;;;;;;;0.00;0.00;;;16.50;69.10;;;;;;5028588;28;20025;-84
2021/06/28 00:43:11;;;;;;;10.40;0.20;;;16.50;69.20;;;;;;5014118;28;20068;-85
2021/06/28 00:45:39;;;;;;;0.85;0.30;;;16.40;69.10;;;;;;5013440;28;20396;-84
2021/06/28 00:48:09;;;;;;;3.03;0.10;;;16.40;69.20;;;;;;5013601;28;20396;-85
2021/06/28 00:50:37;;;;;;;0.17;0.08;;;16.40;69.20;;;;;;5028565;28;20033;-85
2021/06/28 00:53:05;;;;;;;0.30;0.00;;;16.40;69.20;;;;;;5028511;28;20030;-84
2021/06/28 00:55:32;;;;;;;0.20;0.00;;;16.40;69.20;;;;;;5013351;28;20508;-84
2021/06/28 00:57:58;;;;;;;0.30;0.10;;;16.40;69.30;;;;;;5028498;28;20388;-84
2021/06/28 01:00:24;;;;;;;0.13;0.10;;;16.30;69.30;;;;;;5012374;28;20030;-84
2021/06/28 01:02:50;;;;;;;0.22;0.00;;;16.30;69.30;;;;;;5028520;28;20037;-84
2021/06/28 01:05:19;;;;;;;0.45;0.03;;;16.20;69.40;;;;;;5013021;28;20033;-85
2021/06/28 01:07:46;;;;;;;0.10;0.00;;;16.30;69.50;;;;;;5028500;28;20390;-84
2021/06/28 01:10:13;;;;;;;0.20;0.00;;;16.20;69.50;;;;;;5029327;28;20048;-85
2021/06/28 01:12:40;;;;;;;0.47;0.10;;;16.20;69.60;;;;;;5029526;28;20018;-87
2021/06/28 01:15:06;;;;;;;0.85;0.28;;;16.20;70.40;;;;;;5007053;28;20056;-87
2021/06/28 01:17:33;;;;;;;0.20;0.10;;;16.10;69.70;;;;;;5023998;28;20057;-86
2021/06/28 01:20:00;;;;;;;0.90;0.25;;;16.10;69.70;;;;;;5027379;28;20030;-86
2021/06/28 01:22:30;;;;;;;0.15;0.05;;;16.10;70.50;;;;;;5028154;28;20468;-87
2021/06/28 01:24:57;;;;;;;0.03;0.00;;;16.10;69.80;;;;;;5027838;28;20048;-87
2021/06/28 01:27:24;;;;;;;0.30;0.15;;;16.10;69.80;;;;;;5012077;28;20034;-87
2021/06/28 01:29:51;;;;;;;0.17;0.05;;;16.10;69.80;;;;;;5012543;28;20527;-86
2021/06/28 01:32:17;;;;;;;0.03;0.00;;;16.00;69.70;;;;;;5027303;28;20040;-86
2021/06/28 01:34:43;;;;;;;0.55;0.30;;;16.00;69.80;;;;;;5027891;28;20154;-87
2021/06/28 01:37:13;;;;;;;0.22;0.00;;;16.00;69.70;;;;;;5012272;28;20018;-85
2021/06/28 01:39:39;;;;;;;0.10;0.00;;;16.00;69.80;;;;;;5012652;28;20472;-87
2021/06/28 01:42:06;;;;;;;0.30;0.20;;;16.00;69.80;;;;;;5012326;28;20030;-86
2021/06/28 01:44:32;;;;;;;0.30;0.15;;;16.00;69.90;;;;;;5012481;28;20492;-86
2021/06/28 01:46:58;;;;;;;1.35;0.10;;;16.00;69.80;;;;;;5027277;28;20039;-87
2021/06/28 01:49:24;;;;;;;0.00;0.00;;;16.00;69.90;;;;;;5027722;28;20049;-86
2021/06/28 01:51:51;;;;;;;0.05;0.00;;;16.00;69.80;;;;;;5010931;28;20030;-86
2021/06/28 01:54:17;;;;;;;0.00;0.00;;;16.00;69.90;;;;;;5011571;28;20033;-87
2021/06/28 01:56:44;;;;;;;0.30;0.20;;;15.90;69.90;;;;;;5027483;28;20102;-86
2021/06/28 01:59:10;;;;;;;0.70;0.15;;;15.90;69.90;;;;;;5012305;28;20045;-86
2021/06/28 02:01:36;;;;;;;0.98;0.28;;;15.90;70.00;;;;;;5026859;28;20034;-87
2021/06/28 02:04:02;;;;;;;0.08;0.00;;;15.90;70.00;;;;;;5006193;28;20038;-86
2021/06/28 02:06:28;;;;;;;0.00;0.00;;;15.90;70.10;;;;;;5002414;28;20408;-87
2021/06/28 02:08:54;;;;;;;0.05;0.00;;;15.80;70.00;;;;;;4999606;28;20038;-87
2021/06/28 02:11:20;;;;;;;0.32;0.00;;;15.80;70.00;;;;;;4999689;28;20511;-87
2021/06/28 02:13:46;;;;;;;0.32;0.05;;;15.80;70.00;;;;;;5003059;28;20030;-87
2021/06/28 02:16:12;;;;;;;0.70;0.20;;;15.90;70.10;;;;;;5032259;28;20508;-87
2021/06/28 02:18:38;;;;;;;0.25;0.00;;;15.80;70.10;;;;;;5042268;28;20030;-85
2021/06/28 02:21:06;;;;;;;0.00;0.00;;;15.80;70.10;;;;;;5003124;28;20026;-87
2021/06/28 02:23:38;;;;;;;0.73;0.10;;;15.80;70.10;;;;;;5040022;28;20037;-87
2021/06/28 02:26:12;;;;;;;0.30;0.20;;;15.80;70.20;;;;;;5017993;28;20026;-86
2021/06/28 02:28:41;;;;;;;0.32;0.28;;;15.80;70.30;;;;;;5008744;28;20046;-87
2021/06/28 02:31:08;;;;;;;0.55;0.10;;;15.70;70.30;;;;;;5022654;28;20030;-87
2021/06/28 02:33:35;;;;;;;2.50;0.57;;;15.70;70.30;;;;;;5009628;28;20030;-86
2021/06/28 02:36:01;;;;;;;0.47;0.25;;;15.70;70.30;;;;;;5012348;28;20396;-87
2021/06/28 02:38:28;;;;;;;0.30;0.10;;;15.70;70.40;;;;;;5030800;28;20404;-85
2021/06/28 02:40:55;;;;;;;0.55;0.10;;;15.70;70.40;;;;;;5015826;28;20349;-87
2021/06/28 02:43:21;;;;;;;0.60;0.20;;;15.70;70.50;;;;;;5030894;28;20046;-86
2021/06/28 02:45:47;;;;;;;0.00;0.00;;;15.60;70.40;;;;;;5030627;28;20026;-86
2021/06/28 02:48:13;;;;;;;0.65;0.30;;;15.60;70.50;;;;;;5014701;28;20049;-86
2021/06/28 02:50:39;;;;;;;0.90;0.25;;;15.60;70.50;;;;;;5015211;28;20042;-86
2021/06/28 02:53:05;;;;;;;4.40;0.20;;;15.60;70.60;;;;;;5015779;28;20029;-87
2021/06/28 02:55:32;;;;;;;0.93;0.10;;;15.60;70.60;;;;;;5015698;28;20037;-86
2021/06/28 02:57:58;;;;;;;0.30;0.10;;;15.70;70.60;;;;;;5030902;28;20042;-86
2021/06/28 03:00:24;;;;;;;0.28;0.00;;;15.60;70.60;;;;;;4998443;28;20034;-86
2021/06/28 03:02:50;;;;;;;0.47;0.00;;;15.60;70.60;;;;;;5015422;28;20492;-86
2021/06/28 03:05:16;;;;;;;3.92;0.30;;;15.60;70.50;;;;;;5015091;28;20030;-87
2021/06/28 03:07:42;;;;;;;0.40;0.20;;;15.70;70.60;;;;;;5030670;28;20038;-86
2021/06/28 03:10:11;;;;;;;0.05;0.00;;;15.70;70.60;;;;;;5015272;28;20037;-87
2021/06/28 03:12:37;;;;;;;0.43;0.13;;;15.70;70.60;;;;;;5031056;28;20025;-88
2021/06/28 03:15:08;;;;;;;0.30;0.10;;;15.70;70.60;;;;;;5005450;28;20045;-86
2021/06/28 03:17:35;;;;;;;0.20;0.03;;;15.60;70.70;;;;;;5030438;28;20041;-86
2021/06/28 03:20:03;;;;;;;0.90;0.30;;;15.60;70.70;;;;;;5014898;28;20510;-87
2021/06/28 03:22:29;;;;;;;0.20;0.00;;;15.70;70.70;;;;;;5030636;28;20049;-87
2021/06/28 03:24:55;;;;;;;0.28;0.13;;;15.60;70.70;;;;;;5015086;28;20034;-87
2021/06/28 03:27:22;;;;;;;0.20;0.00;;;15.60;70.80;;;;;;5015519;28;20472;-87
2021/06/28 03:29:48;;;;;;;0.88;0.25;;;15.50;70.70;;;;;;5014860;28;20050;-86
2021/06/28 03:32:14;;;;;;;0.40;0.20;;;15.50;70.80;;;;;;5014424;28;20026;-86
2021/06/28 03:34:40;;;;;;;0.40;0.10;;;15.50;71.00;;;;;;5030023;28;20026;-87
2021/06/28 03:37:06;;;;;;;0.77;0.20;;;15.40;71.00;;;;;;5015243;28;20029;-87
2021/06/28 03:39:33;;;;;;;0.40;0.13;;;15.50;71.10;;;;;;5015257;28;20050;-83
2021/06/28 03:41:59;;;;;;;0.25;0.17;;;15.40;71.00;;;;;;5014224;28;20037;-89
2021/06/28 03:44:25;;;;;;;0.00;0.00;;;15.40;71.10;;;;;;5029950;28;20042;-87
2021/06/28 03:46:51;;;;;;;0.00;0.00;;;15.40;71.10;;;;;;5014245;28;20038;-86
2021/06/28 03:49:17;;;;;;;0.15;0.00;;;15.30;71.10;;;;;;5013295;28;20080;-87
2021/06/28 03:51:43;;;;;;;0.10;0.00;;;15.30;71.10;;;;;;5014888;28;20033;-86
2021/06/28 03:54:09;;;;;;;0.45;0.13;;;15.20;71.30;;;;;;5014811;28;20369;-86
2021/06/28 03:56:35;;;;;;;0.43;0.10;;;15.20;71.40;;;;;;5014330;28;20041;-86
2021/06/28 03:59:01;;;;;;;4.70;0.13;;;15.20;71.50;;;;;;5014568;28;20487;-87
2021/06/28 04:01:27;;;;;;;0.45;0.22;;;15.10;71.50;;;;;;5013828;28;20034;-87
2021/06/28 04:03:54;;;;;;;0.38;0.15;;;15.10;71.50;;;;;;5014315;28;20056;-86
2021/06/28 04:06:22;;;;;;;0.17;0.10;;;15.10;71.50;;;;;;5014724;28;20052;-87
2021/06/28 04:08:48;;;;;;;0.00;0.00;;;15.10;71.50;;;;;;5029185;28;20046;-87
2021/06/28 04:11:14;;;;;;;0.30;0.03;;;15.10;71.50;;;;;;5014083;28;20029;-86
2021/06/28 04:13:40;;;;;;;0.17;0.03;;;15.10;71.50;;;;;;5029662;28;20041;-87
2021/06/28 04:16:06;;;;;;;0.35;0.03;;;15.10;71.50;;;;;;5013228;28;20373;-87
2021/06/28 04:18:32;;;;;;;0.03;0.00;;;15.10;71.50;;;;;;5013054;28;20038;-86
2021/06/28 04:20:58;;;;;;;0.03;0.00;;;15.10;71.60;;;;;;5029397;28;20404;-87
2021/06/28 04:23:24;;;;;;;0.52;0.00;;;15.10;71.70;;;;;;5029473;28;20042;-87
2021/06/28 04:25:50;;;;;;;0.15;0.10;;;15.00;71.70;;;;;;5014017;28;20511;-86
2021/06/28 04:28:16;;;;;;;0.40;0.20;;;15.00;71.80;;;;;;5029019;28;20045;-86
2021/06/28 04:30:43;;;;;;;0.00;0.00;;;15.00;71.80;;;;;;5013843;28;20053;-88
2021/06/28 04:33:09;;;;;;;0.90;0.35;;;15.00;71.90;;;;;;5014345;28;20033;-86
2021/06/28 04:35:35;;;;;;;0.22;0.03;;;15.00;71.90;;;;;;5029010;28;20041;-87
2021/06/28 04:38:01;;;;;;;0.00;0.00;;;15.00;71.90;;;;;;5013552;28;20053;-87
2021/06/28 04:40:28;;;;;;;1.02;0.57;;;15.00;71.90;;;;;;5013752;28;20030;-88
2021/06/28 04:42:55;;;;;;;1.08;0.30;;;15.00;71.90;;;;;;5028999;28;20034;-86
2021/06/28 04:45:21;;;;;;;0.28;0.10;;;15.00;72.00;;;;;;5013680;28;20038;-87
2021/06/28 04:47:48;;;;;;;0.00;0.00;;;15.00;72.00;;;;;;5028397;28;20026;-86
2021/06/28 04:50:15;;;;;;;1.02;0.20;;;15.00;71.90;;;;;;5013508;28;20530;-87
2021/06/28 04:52:41;;;;;;;0.30;0.00;;;15.00;71.90;;;;;;5028511;28;20022;-86
2021/06/28 04:55:09;;;;;;;0.10;0.03;;;15.00;71.90;;;;;;5027938;28;20415;-87
2021/06/28 04:57:35;;;;;;;0.75;0.20;;;15.10;72.00;;;;;;5010391;28;20499;-87
2021/06/28 05:00:03;;;;;;;2.20;0.43;;;15.10;72.00;;;;;;5028463;28;20057;-86
2021/06/28 05:02:29;;;;;;;0.30;0.05;;;15.10;72.00;;;;;;5012128;28;20037;-87
2021/06/28 05:04:55;;;;;;;0.50;0.20;;;15.10;72.00;;;;;;5013376;28;20037;-87
2021/06/28 05:07:21;;;;;;;0.82;0.35;;;15.30;71.90;;;;;;5013243;28;20033;-87
2021/06/28 05:09:47;;;;;;;0.32;0.10;;;15.50;71.80;;;;;;5013214;28;20046;-87
2021/06/28 05:12:14;;;;;;;0.10;0.00;;;15.70;71.60;;;;;;5012532;28;20033;-87
2021/06/28 05:14:40;;;;;;;0.30;0.20;;;15.90;71.40;;;;;;5012845;28;20018;-87
2021/06/28 05:17:07;;;;;;;0.10;0.08;;;16.00;71.20;;;;;;5011050;28;20037;-87
2021/06/28 05:19:33;;;;;;;0.77;0.20;;;16.20;71.90;;;;;;5012999;28;20021;-87
2021/06/28 05:21:59;;;;;;;0.68;0.30;;;16.30;71.00;;;;;;5012218;28;20042;-88
2021/06/28 05:24:25;;;;;;;0.38;0.13;;;16.40;70.80;;;;;;5012509;28;20025;-84
2021/06/28 05:26:51;;;;;;;0.10;0.00;;;16.60;70.60;;;;;;5012765;28;20029;-87
2021/06/28 05:29:18;;;;;;;1.00;0.45;;;16.70;70.50;;;;;;5027459;28;20061;-87
2021/06/28 05:31:44;;;;;;;0.32;0.10;;;16.90;70.30;;;;;;5012258;28;20045;-87
2021/06/28 05:34:10;;;;;;;0.10;0.10;;;17.00;70.20;;;;;;5011758;28;20053;-87
2021/06/28 05:36:36;;;;;;;3.10;0.40;;;17.10;70.00;;;;;;5013176;28;20026;-87
2021/06/28 05:39:03;;;;;;;0.38;0.15;;;17.20;69.90;;;;;;5027884;28;20042;-87
2021/06/28 05:41:29;;;;;;;4.40;0.30;;;17.40;69.70;;;;;;5012630;28;20049;-86
2021/06/28 05:43:56;;;;;;;0.00;0.00;;;17.40;69.60;;;;;;5012283;28;20472;-87
2021/06/28 05:46:22;;;;;;;0.05;0.03;;;17.60;69.50;;;;;;5012283;28;20042;-86
2021/06/28 05:48:48;;;;;;;0.00;0.00;;;17.60;69.40;;;;;;5027719;28;20033;-84
2021/06/28 05:51:17;;;;;;;0.20;0.10;;;17.80;69.30;;;;;;5011739;28;20041;-86
2021/06/28 05:53:43;;;;;;;0.25;0.10;;;18.00;69.10;;;;;;5012484;28;20042;-84
2021/06/28 05:56:09;;;;;;;0.00;0.00;;;18.10;68.80;;;;;;5012133;28;20042;-84
2021/06/28 05:58:36;;;;;;;0.90;0.35;;;18.30;68.40;;;;;;5012012;28;20030;-84
2021/06/28 06:01:02;;;;;;;3.53;0.20;;;18.50;68.20;;;;;;5027049;28;20041;-87
2021/06/28 06:03:28;;;;;;;0.20;0.00;;;18.60;68.10;;;;;;5012826;28;20034;-84
2021/06/28 06:05:54;;;;;;;0.82;0.10;;;18.70;68.00;;;;;;5012057;28;20037;-84
2021/06/28 06:08:24;;;;;;;0.10;0.00;;;18.70;67.80;;;;;;5027340;28;20038;-84
2021/06/28 06:10:55;;;;;;;0.77;0.30;;;18.80;67.80;;;;;;5011971;28;20049;-84
2021/06/28 06:13:21;;;;;;;0.25;0.20;;;18.90;67.70;;;;;;5027093;28;20037;-84
2021/06/28 06:15:47;;;;;;;0.05;0.00;;;19.00;67.50;;;;;;5027015;28;20029;-84
2021/06/28 06:18:13;;;;;;;0.00;0.00;;;19.10;67.50;;;;;;5011262;28;20041;-84
2021/06/28 06:20:39;;;;;;;0.08;0.00;;;19.20;67.20;;;;;;5011957;28;20030;-84
2021/06/28 06:23:05;;;;;;;0.00;0.00;;;19.30;67.10;;;;;;5012086;28;20034;-83
2021/06/28 06:25:32;;;;;;;0.10;0.10;;;19.30;67.10;;;;;;5012125;28;20376;-83
2021/06/28 06:27:58;;;;;;;5.38;0.10;;;19.40;67.00;;;;;;5026717;28;20048;-85
2021/06/28 06:30:24;;;;;;;0.00;0.00;;;19.30;66.90;;;;;;5010749;28;20053;-84
2021/06/28 06:32:50;;;;;;;0.00;0.00;;;19.40;67.00;;;;;;5027053;28;20416;-83
2021/06/28 06:35:20;;;;;;;0.00;0.00;;;19.60;66.90;;;;;;5011986;28;20033;-86
2021/06/28 06:37:46;;;;;;;2.65;0.15;;;19.60;66.50;;;;;;5026818;28;20030;-85
2021/06/28 06:40:12;;;;;;;0.30;0.03;;;19.60;66.50;;;;;;5027190;28;20026;-84
2021/06/28 06:42:38;;;;;;;0.20;0.03;;;19.60;66.60;;;;;;5011958;28;20033;-85
2021/06/28 06:45:05;;;;;;;0.22;0.08;;;19.60;66.40;;;;;;5014785;28;20400;-82
2021/06/28 06:47:31;;;;;;;0.30;0.10;;;19.70;66.50;;;;;;5011708;28;20026;-84
2021/06/28 06:49:57;;;;;;;0.80;0.28;;;19.70;66.20;;;;;;5011664;28;20495;-84
2021/06/28 06:52:23;;;;;;;0.13;0.10;;;19.80;66.20;;;;;;5027050;28;20034;-84
2021/06/28 06:54:49;;;;;;;6.78;0.10;;;19.90;66.20;;;;;;5011942;28;20029;-84
2021/06/28 06:57:16;;;;;;;0.00;0.00;;;20.00;66.00;;;;;;5011919;28;20388;-85
2021/06/28 06:59:42;;;;;;;0.03;0.00;;;20.20;65.70;;;;;;5011759;28;20037;-84
2021/06/28 07:02:08;;;;;;;2.92;0.10;;;20.30;65.30;;;;;;5026373;28;20033;-86
2021/06/28 07:04:34;;;;;;;0.22;0.00;;;20.30;65.30;;;;;;5027195;28;20033;-85
2021/06/28 07:07:00;;;;;;;1.98;0.17;;;20.50;65.40;;;;;;5011598;28;20026;-84
2021/06/28 07:09:30;;;;;;;0.10;0.00;;;20.70;65.70;;;;;;5011093;28;20038;-84
2021/06/28 07:11:56;;;;;;;0.00;0.00;;;21.00;64.30;;;;;;5011632;28;20026;-84
2021/06/28 07:14:22;;;;;;;0.63;0.10;;;21.00;64.10;;;;;;5026854;28;20408;-85
2021/06/28 07:16:48;;;;;;;0.05;0.05;;;21.00;64.30;;;;;;5011388;28;20033;-85
2021/06/28 07:19:14;;;;;;;0.00;0.00;;;21.00;64.20;;;;;;5030400;28;20034;-86
2021/06/28 07:21:41;;;;;;;0.28;0.00;;;21.10;64.20;;;;;;5015565;28;20492;-82
2021/06/28 07:24:07;;;;;;;0.20;0.10;;;21.00;64.30;;;;;;5014182;28;20029;-86
2021/06/28 07:26:33;;;;;;;0.38;0.15;;;20.90;64.40;;;;;;5029926;28;20026;-84
2021/06/28 07:28:59;;;;;;;1.38;0.20;;;20.80;64.70;;;;;;5030032;28;20385;-85
2021/06/28 07:31:26;;;;;;;0.40;0.00;;;20.70;64.80;;;;;;5029958;28;20034;-85
2021/06/28 07:33:52;;;;;;;0.08;0.08;;;20.70;65.00;;;;;;5015158;28;20026;-86
2021/06/28 07:36:18;;;;;;;24.80;0.40;;;20.60;65.20;;;;;;5015223;28;20037;-85
2021/06/28 07:38:44;;;;;;;0.20;0.00;;;20.60;65.30;;;;;;5014941;28;20034;-85
2021/06/28 07:41:10;;;;;;;1.85;0.10;;;20.60;65.20;;;;;;5015138;28;20026;-83
2021/06/28 07:43:36;;;;;;;0.10;0.00;;;20.70;65.00;;;;;;5031074;28;20412;-84
2021/06/28 07:46:02;;;;;;;0.10;0.10;;;20.70;64.90;;;;;;5015088;28;20488;-84
2021/06/28 07:48:29;;;;;;;0.25;0.20;;;20.60;64.90;;;;;;5014606;28;20030;-85
2021/06/28 07:50:55;;;;;;;0.22;0.00;;;20.60;65.10;;;;;;5030311;28;20041;-84
2021/06/28 07:53:21;;;;;;;4.75;0.52;;;20.70;65.00;;;;;;5015144;28;20037;-85
2021/06/28 07:55:47;;;;;;;0.80;0.25;;;20.80;64.70;;;;;;5014217;28;20038;-86
2021/06/28 07:58:13;;;;;;;0.10;0.00;;;20.80;64.50;;;;;;5029667;28;20034;-85
2021/06/28 08:00:40;;;;;;;0.85;0.13;;;20.80;64.50;;;;;;5014254;28;20030;-85
2021/06/28 08:03:06;;;;;;;0.22;0.10;;;20.80;64.50;;;;;;5014538;28;20049;-85
2021/06/28 08:05:34;;;;;;;0.25;0.20;;;20.70;64.60;;;;;;5029567;28;20030;-85
2021/06/28 08:08:00;;;;;;;0.25;0.05;;;20.60;64.70;;;;;;5029187;28;20049;-86
2021/06/28 08:10:26;;;;;;;0.30;0.03;;;20.60;64.90;;;;;;5013868;28;20038;-86
2021/06/28 08:12:52;;;;;;;0.52;0.00;;;20.50;64.80;;;;;;5014308;28;20038;-85
2021/06/28 08:15:19;;;;;;;3.80;0.47;;;20.40;65.00;;;;;;5012880;28;20033;-84
2021/06/28 08:17:49;;;;;;;0.47;0.15;;;20.30;65.10;;;;;;5029132;28;20026;-85
2021/06/28 08:20:16;;;;;;;0.32;0.10;;;20.30;65.30;;;;;;5014008;28;20045;-84
2021/06/28 08:22:43;;;;;;;0.50;0.13;;;20.30;65.20;;;;;;5029325;28;20018;-85
2021/06/28 08:25:10;;;;;;;0.13;0.00;;;20.30;65.10;;;;;;5013763;28;20034;-85
2021/06/28 08:27:36;;;;;;;0.10;0.00;;;20.30;65.00;;;;;;5014643;28;20026;-83
2021/06/28 08:30:06;;;;;;;0.08;0.00;;;20.40;64.90;;;;;;5013315;28;20052;-83
2021/06/28 08:32:33;;;;;;;0.00;0.00;;;20.50;64.90;;;;;;5013759;28;20041;-86
2021/06/28 08:34:59;;;;;;;0.17;0.00;;;20.70;64.60;;;;;;5028901;28;20030;-87
2021/06/28 08:37:26;;;;;;;0.13;0.10;;;20.80;64.10;;;;;;5028671;28;20492;-85
2021/06/28 08:39:52;;;;;;;0.30;0.10;;;21.00;63.90;;;;;;5028439;28;20049;-85
2021/06/28 08:42:18;;;;;;;0.10;0.00;;;21.10;63.20;;;;;;5013073;28;20025;-85
2021/06/28 08:44:45;;;;;;;0.98;0.17;;;21.00;63.20;;;;;;5028689;28;20041;-85
2021/06/28 08:47:11;;;;;;;0.00;0.00;;;20.90;63.30;;;;;;5013292;28;20041;-85
2021/06/28 08:49:40;;;;;;;0.20;0.20;;;20.80;63.40;;;;;;5028689;28;20038;-85
2021/06/28 08:52:07;;;;;;;2.55;0.00;;;20.60;63.40;;;;;;4997465;28;20030;-79
2021/06/28 08:54:33;;;;;;;1.00;0.45;;;20.50;63.90;;;;;;5012920;28;20030;-86
2021/06/28 08:56:59;;;;;;;0.40;0.10;;;20.40;64.10;;;;;;5013668;28;20022;-87
2021/06/28 08:59:25;;;;;;;0.10;0.05;;;20.50;64.10;;;;;;5029419;28;20030;-86
2021/06/28 09:01:51;;;;;;;0.40;0.20;;;20.50;64.00;;;;;;5013417;28;20040;-84
2021/06/28 09:04:17;;;;;;;0.10;0.00;;;20.50;63.90;;;;;;5013180;28;20034;-85
2021/06/28 09:06:45;;;;;;;0.20;0.17;;;20.50;63.80;;;;;;5028114;28;20034;-84
2021/06/28 09:09:14;;;;;;;0.50;0.00;;;20.50;63.80;;;;;;5009258;28;20042;-84
2021/06/28 09:11:45;;;;;;;0.45;0.22;;;20.40;63.90;;;;;;5008610;28;20072;-84
2021/06/28 09:14:12;;;;;;;0.38;0.13;;;20.40;64.00;;;;;;5013353;28;20032;-86
2021/06/28 09:16:39;;;;;;;0.00;0.00;;;20.40;64.10;;;;;;5011217;28;20391;-85
2021/06/28 09:19:06;;;;;;;0.17;0.00;;;20.30;64.30;;;;;;5028168;28;20038;-86
2021/06/28 09:21:33;;;;;;;0.08;0.03;;;20.10;64.50;;;;;;5008902;28;20497;-86
2021/06/28 09:24:01;;;;;;;0.22;0.00;;;20.00;65.00;;;;;;5012226;28;20404;-86
2021/06/28 09:26:32;;;;;;;1.38;0.32;;;19.80;65.30;;;;;;5028058;28;20094;-86
2021/06/28 09:28:58;;;;;;;;;;;19.70;65.60;;;;;;5028113;28;20389;-85
2021/06/28 09:31:33;;;;;;;0.38;0.10;;;19.60;65.80;;;;;;5012012;28;19925;-86
2021/06/28 09:34:11;;;;;;;0.30;0.00;;;19.50;66.00;;;;;;5012794;28;20037;-88
2021/06/28 09:36:50;;;;;;;0.38;0.10;;;19.40;66.20;;;;;;5008971;28;20045;-83
2021/06/28 09:39:32;;;;;;;0.73;0.17;;;19.40;66.50;;;;;;5012801;28;20048;-85
2021/06/28 09:42:07;;;;;;;0.30;0.13;;;19.20;66.70;;;;;;5012136;28;20051;-86
2021/06/28 09:44:35;;;;;;;0.05;0.00;;;19.10;67.20;;;;;;5012511;28;20612;-85
2021/06/28 09:47:09;;;;;;;0.10;0.10;;;19.00;67.50;;;;;;5010536;28;20041;-88
2021/06/28 09:49:35;;;;;;;0.47;0.13;;;18.80;67.70;;;;;;5012294;28;20054;-88
2021/06/28 09:52:02;;;;;;;0.43;0.17;;;18.80;67.90;;;;;;5012092;28;20038;-88
2021/06/28 09:54:28;;;;;;;0.30;0.10;;;18.80;68.00;;;;;;5013021;28;20374;-88
2021/06/28 09:56:54;;;;;;;0.47;0.10;;;18.70;68.10;;;;;;5012373;28;20045;-88
2021/06/28 09:59:31;;;;;;;0.00;0.00;;;18.70;68.20;;;;;;5027811;28;20034;-87
2021/06/28 10:02:18;;;;;;;0.50;0.00;;;18.70;68.20;;;;;;5011836;28;20477;-87
2021/06/28 10:05:00;;;;;;;0.20;0.10;;;18.70;68.50;;;;;;5011914;28;20042;-87
2021/06/28 10:07:37;;;;;;;0.68;0.20;;;18.60;68.50;;;;;;5026692;28;20205;-86
2021/06/28 10:10:09;;;;;;;0.30;0.00;;;18.60;68.70;;;;;;5012295;28;20038;-87
2021/06/28 10:12:36;;;;;;;0.20;0.08;;;18.50;68.80;;;;;;5008607;28;20029;-87
2021/06/28 10:15:04;;;;;;;0.10;0.00;;;18.50;68.90;;;;;;5026938;28;20030;-85
2021/06/28 10:17:30;;;;;;;0.10;0.00;;;18.50;68.90;;;;;;5011994;28;20030;-86
2021/06/28 10:19:56;;;;;;;0.35;0.10;;;18.50;68.90;;;;;;5026920;28;20026;-86
2021/06/28 10:22:22;;;;;;;0.10;0.00;;;18.50;69.00;;;;;;5027254;28;20037;-87
2021/06/28 10:24:48;;;;;;;0.57;0.15;;;18.50;68.90;;;;;;5027509;28;20041;-87
2021/06/28 10:27:14;;;;;;;0.10;0.03;;;18.50;69.20;;;;;;5012305;28;20519;-86
2021/06/28 10:29:41;;;;;;;0.65;0.15;;;18.50;69.50;;;;;;5027041;28;20050;-87
2021/06/28 10:32:09;;;;;;;2.65;0.52;;;18.40;69.70;;;;;;5026702;28;20045;-86
2021/06/28 10:34:35;;;;;;;0.00;0.00;;;18.40;69.90;;;;;;5026111;28;20033;-86
2021/06/28 10:37:03;;;;;;;0.52;0.20;;;18.30;70.10;;;;;;5027122;28;20392;-85
2021/06/28 10:39:31;;;;;;;0.35;0.20;;;18.30;70.30;;;;;;5012599;28;20042;-85
2021/06/28 10:41:57;;;;;;;0.70;0.10;;;18.20;70.40;;;;;;5027088;28;20022;-87
2021/06/28 10:44:24;;;;;;;0.00;0.00;;;18.20;70.40;;;;;;5027125;28;20038;-86
2021/06/28 10:46:56;;;;;;;1.05;0.03;;;18.20;70.50;;;;;;5026489;28;20029;-84
2021/06/28 10:49:41;;;;;;;1.10;0.30;;;18.20;70.60;;;;;;5026119;28;20038;-86
2021/06/28 10:52:07;;;;;;;0.20;0.10;;;18.10;70.70;;;;;;5011643;28;20477;-85
2021/06/28 10:54:35;;;;;;;0.28;0.10;;;18.10;70.60;;;;;;5015255;28;20036;-85
2021/06/28 10:57:02;;;;;;;0.17;0.03;;;18.20;70.60;;;;;;5015496;28;20053;-86
2021/06/28 10:59:54;;;;;;;0.10;0.05;;;18.20;70.50;;;;;;5030978;28;20501;-85
2021/06/28 11:02:20;;;;;;;1.40;0.20;;;18.20;70.60;;;;;;5015580;28;20038;-85
2021/06/28 11:04:56;;;;;;;0.20;0.00;;;18.20;70.60;;;;;;5030526;28;20021;-86
2021/06/28 11:07:22;;;;;;;1.23;0.10;;;18.20;70.80;;;;;;5030633;28;20372;-86
2021/06/28 11:09:51;;;;;;;0.10;0.00;;;18.20;70.80;;;;;;5030737;28;20018;-86
2021/06/28 11:12:18;;;;;;;0.10;0.00;;;18.20;70.90;;;;;;5014684;28;20498;-83
2021/06/28 11:14:45;;;;;;;0.60;0.10;;;18.20;70.80;;;;;;5015388;28;20022;-85
2021/06/28 11:17:16;;;;;;;0.47;0.20;;;18.20;70.90;;;;;;5014501;28;20042;-85
2021/06/28 11:22:30;;;;;;;0.08;0.00;;;18.30;70.90;;;;;;5015433;28;20290;-86
2021/06/28 11:25:03;;;;;;;0.20;0.00;;;18.30;70.90;;;;;;5015241;28;20038;-86
2021/06/28 11:27:29;;;;;;;0.20;0.15;;;18.30;71.10;;;;;;5014364;28;20034;-85
2021/06/28 11:29:55;;;;;;;0.45;0.10;;;18.20;71.10;;;;;;5030098;28;20404;-86
2021/06/28 11:32:23;;;;;;;0.32;0.00;;;18.20;71.10;;;;;;5028983;28;20045;-86
2021/06/28 11:34:49;;;;;;;0.20;0.10;;;18.30;71.20;;;;;;5014832;28;20040;-84
2021/06/28 11:37:15;;;;;;;0.40;0.10;;;18.40;71.10;;;;;;5030158;28;20049;-85
2021/06/28 11:39:54;;;;;;;0.57;0.10;;;18.50;71.10;;;;;;5030490;28;20094;-86
2021/06/28 11:42:31;;;;;;;0.98;0.15;;;18.60;70.90;;;;;;5013605;28;20049;-85
2021/06/28 11:44:58;;;;;;;0.08;0.05;;;18.70;70.80;;;;;;5014763;28;20026;-85
2021/06/28 11:47:50;;;;;;;0.10;0.00;;;18.80;70.70;;;;;;5009313;28;20048;-85
2021/06/28 11:50:38;;;;;;;0.57;0.10;;;18.90;70.90;;;;;;5007152;28;20122;-86
2021/06/28 11:53:12;;;;;;;0.00;0.00;;;19.00;70.80;;;;;;5013264;28;20412;-85
2021/06/28 11:55:40;;;;;;;0.00;0.00;;;19.20;70.90;;;;;;5029634;28;20377;-85
2021/06/28 11:58:06;;;;;;;0.93;0.00;;;19.30;70.80;;;;;;5014970;28;20041;-86
2021/06/28 12:00:33;;;;;;;8.35;0.47;;;19.50;70.60;;;;;;5013328;28;20424;-85
2021/06/28 12:03:13;;;;;;;0.15;0.10;;;19.70;70.60;;;;;;5028866;28;20375;-88
2021/06/28 12:05:39;;;;;;;0.20;0.17;;;20.00;70.10;;;;;;5029104;28;20032;-87
2021/06/28 12:08:05;;;;;;;0.10;0.00;;;20.10;69.80;;;;;;5029408;28;20022;-87
2021/06/28 12:10:32;;;;;;;0.13;0.00;;;20.10;69.70;;;;;;5014324;28;20025;-86
2021/06/28 12:12:58;;;;;;;0.10;0.03;;;20.00;69.80;;;;;;5013424;28;20048;-88
2021/06/28 12:15:28;;;;;;;0.00;0.00;;;19.90;69.80;;;;;;5013970;28;20041;-87
2021/06/28 12:17:54;;;;;;;0.55;0.50;;;19.90;70.10;;;;;;5029512;28;20045;-87
2021/06/28 12:20:21;;;;;;;0.10;0.00;;;19.80;70.20;;;;;;5014175;28;20038;-87
2021/06/28 12:22:48;;;;;;;0.00;0.00;;;19.80;70.40;;;;;;5014043;28;20018;-87
2021/06/28 12:25:15;;;;;;;0.43;0.20;;;19.80;70.50;;;;;;5029181;28;20050;-86
2021/06/28 12:27:43;;;;;;;0.80;0.03;;;19.80;70.40;;;;;;5014208;28;20029;-86
2021/06/28 12:30:19;;;;;;;1.08;0.10;;;19.90;70.30;;;;;;5012070;28;20064;-85
2021/06/28 12:32:52;;;;;;;0.00;0.00;;;20.00;70.20;;;;;;5027972;28;20045;-87
2021/06/28 12:35:22;;;;;;;0.25;0.00;;;20.10;70.70;;;;;;5029004;28;20388;-88
2021/06/28 12:37:51;;;;;;;0.00;0.00;;;20.20;69.80;;;;;;5028291;28;20388;-87
2021/06/28 12:40:28;;;;;;;0.10;0.10;;;20.30;69.70;;;;;;5012533;28;20030;-87
2021/06/28 12:42:59;;;;;;;0.00;0.00;;;20.30;69.50;;;;;;5012538;28;20028;-88
2021/06/28 12:45:29;;;;;;;0.08;0.00;;;20.40;69.30;;;;;;5012262;28;20037;-87
2021/06/28 12:47:55;;;;;;;0.15;0.08;;;20.40;69.20;;;;;;5008551;28;20038;-87
2021/06/28 12:50:23;;;;;;;0.00;0.00;;;20.50;69.10;;;;;;5007960;28;20048;-87
2021/06/28 12:52:49;;;;;;;0.10;0.10;;;20.60;68.90;;;;;;5013413;28;20411;-87